createdAt,value
2019-03-06T00:01:49.372Z,100091.00
2019-03-06T00:04:17.471Z,100077.00
2019-03-06T00:06:45.734Z,100081.00
2019-03-06T00:09:13.831Z,100068.00
2019-03-06T00:11:42.065Z,100074.00
2019-03-06T00:14:10.208Z,100056.00
2019-03-06T00:16:38.153Z,100060.00
2019-03-06T00:19:06.295Z,100052.00
2019-03-06T00:21:34.353Z,100056.00
2019-03-06T00:24:04.383Z,100053.00
2019-03-06T00:26:33.378Z,100049.00
2019-03-06T00:29:01.997Z,100050.00
2019-03-06T00:31:30.103Z,100042.00
2019-03-06T00:33:58.244Z,100046.00
2019-03-06T00:36:28.624Z,100049.00
2019-03-06T00:38:56.698Z,100043.00
2019-03-06T00:41:29.118Z,100051.00
2019-03-06T00:43:58.852Z,100059.00
2019-03-06T00:46:26.814Z,100050.00
2019-03-06T00:48:54.923Z,100057.00
2019-03-06T00:51:23.273Z,100057.00
2019-03-06T00:53:51.253Z,100052.00
2019-03-06T00:56:21.347Z,100054.00
2019-03-06T00:58:50.278Z,100046.00
2019-03-06T01:01:18.330Z,100047.00
2019-03-06T01:03:46.280Z,100053.00
2019-03-06T01:06:15.003Z,100046.00
2019-03-06T01:08:42.938Z,100045.00
2019-03-06T01:11:10.883Z,100037.00
2019-03-06T01:13:39.186Z,100030.00
2019-03-06T01:16:07.620Z,100031.00
2019-03-06T01:18:35.545Z,100023.00
2019-03-06T01:21:03.704Z,100029.00
2019-03-06T01:23:31.665Z,100028.00
2019-03-06T01:26:00.474Z,100025.00
2019-03-06T01:28:28.654Z,100017.00
2019-03-06T01:30:56.643Z,100018.00
2019-03-06T01:33:46.913Z,100010.00
2019-03-06T01:36:34.518Z,100009.00
2019-03-06T01:39:28.177Z,100010.00
2019-03-06T01:42:07.567Z,100015.00
2019-03-06T01:44:39.883Z,100010.00
2019-03-06T01:47:08.397Z,99998.00
2019-03-06T01:49:36.804Z,99994.00
2019-03-06T01:52:04.816Z,100006.00
2019-03-06T01:54:32.884Z,100002.00
2019-03-06T01:57:00.918Z,100000.00
2019-03-06T01:59:30.204Z,99991.00
2019-03-06T02:01:58.354Z,99992.00
2019-03-06T02:04:26.322Z,99990.00
2019-03-06T02:06:54.220Z,99995.00
2019-03-06T02:09:26.056Z,99990.00
2019-03-06T02:11:54.231Z,99977.00
2019-03-06T02:14:22.376Z,99974.00
2019-03-06T02:16:50.425Z,99968.00
2019-03-06T02:19:18.380Z,99962.00
2019-03-06T02:21:46.314Z,99968.00
2019-03-06T02:24:14.297Z,99963.00
2019-03-06T02:26:42.867Z,99973.00
2019-03-06T02:29:11.041Z,99955.00
2019-03-06T02:31:40.083Z,99948.00
2019-03-06T02:34:10.364Z,99934.00
2019-03-06T02:36:40.869Z,99923.00
2019-03-06T02:39:08.983Z,99920.00
2019-03-06T02:41:38.048Z,99936.00
2019-03-06T02:44:06.155Z,99933.00
2019-03-06T02:46:34.148Z,99940.00
2019-03-06T02:49:02.964Z,99930.00
2019-03-06T02:51:32.635Z,99921.00
2019-03-06T02:54:00.674Z,99931.00
2019-03-06T02:56:28.835Z,99931.00
2019-03-06T02:59:10.463Z,99928.00
2019-03-06T03:02:01.035Z,99932.00
2019-03-06T03:04:36.233Z,99923.00
2019-03-06T03:07:07.336Z,99921.00
2019-03-06T03:09:35.688Z,99922.00
2019-03-06T03:12:03.745Z,99926.00
2019-03-06T03:14:31.727Z,99933.00
2019-03-06T03:16:59.805Z,99921.00
2019-03-06T03:19:27.883Z,99902.00
2019-03-06T03:21:55.792Z,99907.00
2019-03-06T03:24:23.798Z,99912.00
2019-03-06T03:26:51.806Z,99910.00
2019-03-06T03:29:19.789Z,99907.00
2019-03-06T03:31:47.778Z,99910.00
2019-03-06T03:34:15.713Z,99892.00
2019-03-06T03:36:44.125Z,99893.00
2019-03-06T03:39:12.125Z,99885.00
2019-03-06T03:41:40.100Z,99885.00
2019-03-06T03:44:08.070Z,99883.00
2019-03-06T03:46:36.064Z,99892.00
2019-03-06T03:49:04.013Z,99870.00
2019-03-06T03:51:32.290Z,99871.00
2019-03-06T03:54:00.243Z,99870.00
2019-03-06T03:56:28.168Z,99872.00
2019-03-06T03:58:56.163Z,99874.00
2019-03-06T04:01:24.202Z,99879.00
2019-03-06T04:03:52.227Z,99883.00
2019-03-06T04:06:20.205Z,99878.00
2019-03-06T04:08:48.219Z,99877.00
2019-03-06T04:11:16.275Z,99871.00
2019-03-06T04:13:44.235Z,99859.00
2019-03-06T04:16:12.196Z,99863.00
2019-03-06T04:18:40.215Z,99862.00
2019-03-06T04:21:08.180Z,99864.00
2019-03-06T04:23:36.209Z,99852.00
2019-03-06T04:26:04.345Z,99856.00
2019-03-06T04:28:32.319Z,99865.00
2019-03-06T04:31:00.337Z,99856.00
2019-03-06T04:33:28.655Z,99854.00
2019-03-06T04:35:56.557Z,99848.00
2019-03-06T04:38:24.475Z,99847.00
2019-03-06T04:40:53.406Z,99854.00
2019-03-06T04:43:21.452Z,99850.00
2019-03-06T04:45:49.377Z,99839.00
2019-03-06T04:48:17.459Z,99844.00
2019-03-06T04:50:45.378Z,99839.00
2019-03-06T04:53:13.382Z,99824.00
2019-03-06T04:55:41.363Z,99824.00
2019-03-06T04:58:09.404Z,99819.00
2019-03-06T05:00:37.629Z,99819.00
2019-03-06T05:03:05.611Z,99812.00
2019-03-06T05:05:33.577Z,99808.00
2019-03-06T05:08:01.547Z,99799.00
2019-03-06T05:10:29.612Z,99801.00
2019-03-06T05:12:57.550Z,99801.00
2019-03-06T05:15:25.543Z,99801.00
2019-03-06T05:17:59.117Z,99797.00
2019-03-06T05:20:27.128Z,99784.00
2019-03-06T05:22:55.119Z,99788.00
2019-03-06T05:25:23.461Z,99792.00
2019-03-06T05:27:51.683Z,99803.00
2019-03-06T05:30:21.701Z,99798.00
2019-03-06T05:32:49.911Z,99790.00
2019-03-06T05:36:11.843Z,99795.00
2019-03-06T05:39:09.798Z,99802.00
2019-03-06T05:41:37.840Z,99797.00
2019-03-06T05:44:06.060Z,99786.00
2019-03-06T05:46:34.109Z,99779.00
2019-03-06T05:49:02.097Z,99773.00
2019-03-06T05:51:30.159Z,99758.00
2019-03-06T05:53:58.201Z,99750.00
2019-03-06T05:56:26.388Z,99742.00
2019-03-06T05:58:54.379Z,99744.00
2019-03-06T06:01:22.333Z,99747.00
2019-03-06T06:03:50.716Z,99742.00
2019-03-06T06:06:18.885Z,99731.00
2019-03-06T06:08:46.860Z,99739.00
2019-03-06T06:11:14.752Z,99741.00
2019-03-06T06:13:42.811Z,99738.00
2019-03-06T06:16:10.987Z,99738.00
2019-03-06T06:18:39.137Z,99718.00
2019-03-06T06:21:41.643Z,99732.00
2019-03-06T06:24:13.175Z,99733.00
2019-03-06T06:26:41.233Z,99728.00
2019-03-06T06:29:09.210Z,99724.00
2019-03-06T06:31:37.594Z,99713.00
2019-03-06T06:34:06.623Z,99706.00
2019-03-06T06:36:34.658Z,99711.00
2019-03-06T06:39:04.153Z,99708.00
2019-03-06T06:41:32.312Z,99706.00
2019-03-06T06:44:00.306Z,99720.00
2019-03-06T06:46:29.610Z,99716.00
2019-03-06T06:48:57.874Z,99709.00
2019-03-06T06:52:12.637Z,99701.00
2019-03-06T06:55:50.956Z,99696.00
2019-03-06T06:59:03.769Z,99686.00
2019-03-06T07:03:02.401Z,99685.00
2019-03-06T07:06:07.843Z,99690.00
2019-03-06T07:08:53.245Z,99687.00
2019-03-06T07:11:52.521Z,99670.00
2019-03-06T07:14:38.546Z,99674.00
2019-03-06T07:17:28.641Z,99675.00
2019-03-06T07:20:05.078Z,99671.00
2019-03-06T07:22:44.523Z,99666.00
2019-03-06T07:25:46.633Z,99655.00
2019-03-06T07:28:28.990Z,99670.00
2019-03-06T07:31:12.656Z,99670.00
2019-03-06T07:33:56.105Z,99667.00
2019-03-06T07:36:48.146Z,99664.00
2019-03-06T07:39:22.539Z,99655.00
2019-03-06T07:42:12.740Z,99660.00
2019-03-06T07:45:00.072Z,99647.00
2019-03-06T07:47:59.607Z,99657.00
2019-03-06T07:50:45.106Z,99660.00
2019-03-06T07:54:06.028Z,99658.00
2019-03-06T07:56:40.144Z,99652.00
2019-03-06T07:59:08.101Z,99647.00
2019-03-06T08:01:41.750Z,99642.00
2019-03-06T08:04:15.006Z,99633.00
2019-03-06T08:06:48.018Z,99631.00
2019-03-06T08:09:17.792Z,99620.00
2019-03-06T08:11:53.563Z,99616.00
2019-03-06T08:14:59.279Z,99617.00
2019-03-06T08:17:49.681Z,99617.00
2019-03-06T08:20:40.189Z,99616.00
2019-03-06T08:23:45.669Z,99615.00
2019-03-06T08:26:13.827Z,99617.00
2019-03-06T08:28:41.921Z,99608.00
2019-03-06T08:31:16.411Z,99611.00
2019-03-06T08:33:44.426Z,99602.00
2019-03-06T08:36:12.366Z,99600.00
2019-03-06T08:38:40.338Z,99609.00
2019-03-06T08:41:08.465Z,99609.00
2019-03-06T08:43:36.645Z,99606.00
2019-03-06T08:46:33.139Z,99605.00
2019-03-06T08:49:24.479Z,99601.00
2019-03-06T08:52:17.821Z,99599.00
2019-03-06T08:55:23.353Z,99597.00
2019-03-06T08:58:13.944Z,99585.00
2019-03-06T09:01:04.357Z,99589.00
2019-03-06T09:03:58.270Z,99587.00
2019-03-06T09:06:47.039Z,99567.00
2019-03-06T09:09:34.738Z,99561.00
2019-03-06T09:12:20.505Z,99549.00
2019-03-06T09:15:13.865Z,99545.00
2019-03-06T09:18:09.268Z,99545.00
2019-03-06T09:20:48.535Z,99535.00
2019-03-06T09:23:41.922Z,99541.00
2019-03-06T09:26:24.811Z,99541.00
2019-03-06T09:29:09.338Z,99540.00
2019-03-06T09:31:56.982Z,99535.00
2019-03-06T09:34:39.316Z,99525.00
2019-03-06T09:37:24.113Z,99505.00
2019-03-06T09:40:02.385Z,99502.00
2019-03-06T09:42:56.159Z,99503.00
2019-03-06T09:45:43.831Z,99487.00
2019-03-06T09:48:37.065Z,99472.00
2019-03-06T09:51:27.421Z,99463.00
2019-03-06T09:54:16.223Z,99456.00
2019-03-06T09:56:52.433Z,99448.00
2019-03-06T09:59:25.385Z,99449.00
2019-03-06T10:02:12.968Z,99432.00
2019-03-06T10:05:03.236Z,99435.00
2019-03-06T10:07:46.386Z,99428.00
2019-03-06T10:10:45.784Z,99424.00
2019-03-06T10:13:25.139Z,99413.00
2019-03-06T10:16:15.580Z,99423.00
2019-03-06T10:18:50.175Z,99426.00
2019-03-06T10:21:18.179Z,99411.00
2019-03-06T10:23:46.309Z,99425.00
2019-03-06T10:26:14.438Z,99417.00
2019-03-06T10:28:42.681Z,99416.00
2019-03-06T10:31:10.956Z,99421.00
2019-03-06T10:33:39.021Z,99421.00
2019-03-06T10:36:07.491Z,99413.00
2019-03-06T10:38:35.521Z,99418.00
2019-03-06T10:41:03.844Z,99407.00
2019-03-06T10:43:31.850Z,99406.00
2019-03-06T10:45:59.939Z,99408.00
2019-03-06T10:48:28.277Z,99404.00
2019-03-06T10:50:56.388Z,99396.00
2019-03-06T10:53:24.366Z,99393.00
2019-03-06T10:55:52.723Z,99394.00
2019-03-06T10:58:20.798Z,99384.00
2019-03-06T11:00:51.234Z,99383.00
2019-03-06T11:03:19.417Z,99379.00
2019-03-06T11:05:48.411Z,99373.00
2019-03-06T11:08:17.725Z,99374.00
2019-03-06T11:10:45.850Z,99374.00
2019-03-06T11:13:13.794Z,99374.00
2019-03-06T11:15:42.277Z,99350.00
2019-03-06T11:18:10.823Z,99356.00
2019-03-06T11:20:40.744Z,99357.00
2019-03-06T11:23:09.866Z,99346.00
2019-03-06T11:25:39.487Z,99342.00
2019-03-06T11:28:10.415Z,99338.00
2019-03-06T11:30:44.268Z,99332.00
2019-03-06T11:33:12.562Z,99326.00
2019-03-06T11:35:40.961Z,99326.00
2019-03-06T11:38:09.588Z,99327.00
2019-03-06T11:40:37.746Z,99317.00
2019-03-06T11:43:06.929Z,99313.00
2019-03-06T11:45:36.948Z,99296.00
2019-03-06T11:48:06.617Z,99309.00
2019-03-06T11:50:40.940Z,99295.00
2019-03-06T11:53:05.118Z,99285.00
2019-03-06T11:55:33.606Z,99270.00
2019-03-06T11:58:01.709Z,99261.00
2019-03-06T12:00:35.178Z,99259.00
2019-03-06T12:03:04.341Z,99254.00
2019-03-06T12:05:34.528Z,99247.00
2019-03-06T12:08:05.607Z,99251.00
2019-03-06T12:10:33.653Z,99244.00
2019-03-06T12:13:01.710Z,99232.00
2019-03-06T12:15:29.760Z,99196.00
2019-03-06T12:17:58.000Z,99235.00
2019-03-06T12:20:25.951Z,99230.00
2019-03-06T12:22:54.100Z,99229.00
2019-03-06T12:25:23.492Z,99224.00
2019-03-06T12:27:52.369Z,99220.00
2019-03-06T12:30:20.533Z,99216.00
2019-03-06T12:32:48.567Z,99206.00
2019-03-06T12:35:16.941Z,99203.00
2019-03-06T12:37:47.228Z,99203.00
2019-03-06T12:40:15.613Z,99198.00
2019-03-06T12:42:45.566Z,99198.00
2019-03-06T12:45:14.744Z,99202.00
2019-03-06T12:47:44.820Z,99193.00
2019-03-06T12:50:16.666Z,99191.00
2019-03-06T12:52:45.948Z,99193.00
2019-03-06T12:55:14.152Z,99189.00
2019-03-06T12:57:42.157Z,99182.00
2019-03-06T13:00:18.497Z,99171.00
2019-03-06T13:02:48.081Z,99159.00
2019-03-06T13:05:17.289Z,99153.00
2019-03-06T13:07:45.372Z,99144.00
2019-03-06T13:10:13.593Z,99135.00
2019-03-06T13:12:42.124Z,99137.00
2019-03-06T13:15:13.507Z,99137.00
2019-03-06T13:17:43.788Z,99128.00
2019-03-06T13:20:12.520Z,99124.00
2019-03-06T13:22:44.052Z,99110.00
2019-03-06T13:25:14.170Z,99113.00
2019-03-06T13:27:42.439Z,99112.00
2019-03-06T13:30:18.767Z,99125.00
2019-03-06T13:32:57.158Z,99098.00
2019-03-06T13:35:25.881Z,99108.00
2019-03-06T13:37:53.967Z,99111.00
2019-03-06T13:40:21.895Z,99105.00
2019-03-06T13:42:50.951Z,99100.00
2019-03-06T13:45:19.467Z,99090.00
2019-03-06T13:47:47.654Z,99081.00
2019-03-06T13:50:15.797Z,99081.00
2019-03-06T13:52:43.799Z,99081.00
2019-03-06T13:55:12.293Z,99082.00
2019-03-06T13:57:40.420Z,99070.00
2019-03-06T14:00:11.803Z,99067.00
2019-03-06T14:02:40.084Z,99054.00
2019-03-06T14:05:08.559Z,99060.00
2019-03-06T14:07:36.739Z,99061.00
2019-03-06T14:10:05.431Z,99056.00
2019-03-06T14:12:34.576Z,99067.00
2019-03-06T14:15:03.124Z,99056.00
2019-03-06T14:17:31.538Z,99051.00
2019-03-06T14:19:59.518Z,99051.00
2019-03-06T14:22:27.547Z,99040.00
2019-03-06T14:24:55.766Z,99048.00
2019-03-06T14:27:24.708Z,99040.00
2019-03-06T14:29:52.762Z,99044.00
2019-03-06T14:32:21.215Z,99043.00
2019-03-06T14:34:49.464Z,99033.00
2019-03-06T14:37:18.294Z,99038.00
2019-03-06T14:39:49.305Z,99019.00
2019-03-06T14:42:17.418Z,99019.00
2019-03-06T14:44:45.691Z,99009.00
2019-03-06T14:47:15.009Z,99015.00
2019-03-06T14:49:42.953Z,98999.00
2019-03-06T14:52:13.863Z,99000.00
2019-03-06T14:54:42.397Z,98992.00
2019-03-06T14:57:10.758Z,98991.00
2019-03-06T14:59:38.687Z,98983.00
2019-03-06T15:02:10.486Z,98998.00
2019-03-06T15:04:40.414Z,98993.00
2019-03-06T15:07:12.669Z,98989.00
2019-03-06T15:09:41.813Z,98995.00
2019-03-06T15:12:10.070Z,98987.00
2019-03-06T15:14:39.192Z,98981.00
2019-03-06T15:17:07.433Z,98980.00
2019-03-06T15:19:35.588Z,98975.00
2019-03-06T15:27:48.755Z,98964.00
2019-03-06T15:30:17.706Z,98962.00
2019-03-06T15:32:51.722Z,98963.00
2019-03-06T15:38:09.736Z,98972.00
2019-03-06T15:43:40.759Z,98962.00
2019-03-06T15:46:08.938Z,98964.00
2019-03-06T15:48:37.960Z,98971.00
2019-03-06T15:51:06.490Z,98966.00
2019-03-06T15:53:34.801Z,98967.00
2019-03-06T15:56:02.781Z,98952.00
2019-03-06T15:58:35.598Z,98953.00
2019-03-06T16:01:04.549Z,98955.00
2019-03-06T16:03:32.889Z,98957.00
2019-03-06T16:06:01.201Z,98947.00
2019-03-06T16:08:29.823Z,98932.00
2019-03-06T16:10:58.009Z,98943.00
2019-03-06T16:13:26.246Z,98941.00
2019-03-06T16:15:55.272Z,98931.00
2019-03-06T16:18:23.610Z,98934.00
2019-03-06T16:20:51.725Z,98946.00
2019-03-06T16:23:20.329Z,98942.00
2019-03-06T16:25:48.366Z,98920.00
2019-03-06T16:28:16.703Z,98928.00
2019-03-06T16:30:45.259Z,98933.00
2019-03-06T16:33:13.462Z,98937.00
2019-03-06T16:35:41.717Z,98926.00
2019-03-06T16:38:09.862Z,98926.00
2019-03-06T16:40:38.150Z,98929.00
2019-03-06T16:43:06.917Z,98941.00
2019-03-06T16:45:39.473Z,98935.00
2019-03-06T16:48:08.100Z,98938.00
2019-03-06T16:50:36.362Z,98935.00
2019-03-06T16:53:04.962Z,98941.00
2019-03-06T16:55:33.226Z,98945.00
2019-03-06T16:58:05.897Z,98954.00
2019-03-06T17:00:36.747Z,98954.00
2019-03-06T17:03:08.699Z,98944.00
2019-03-06T17:05:37.362Z,98947.00
2019-03-06T17:08:06.237Z,98944.00
2019-03-06T17:10:38.231Z,98947.00
2019-03-06T17:13:06.766Z,98948.00
2019-03-06T17:15:35.097Z,98955.00
2019-03-06T17:18:03.699Z,98948.00
2019-03-06T17:20:31.976Z,98954.00
2019-03-06T17:23:00.221Z,98956.00
2019-03-06T17:25:34.854Z,98954.00
2019-03-06T17:28:03.169Z,98954.00
2019-03-06T17:30:32.368Z,98966.00
2019-03-06T17:33:03.178Z,98962.00
2019-03-06T17:35:31.924Z,98965.00
2019-03-06T17:38:00.495Z,98959.00
2019-03-06T17:40:28.905Z,98958.00
2019-03-06T17:42:57.605Z,98967.00
2019-03-06T17:45:26.099Z,98961.00
2019-03-06T17:47:54.264Z,98971.00
2019-03-06T17:50:22.950Z,98974.00
2019-03-06T17:52:51.383Z,98984.00
2019-03-06T17:55:24.423Z,98978.00
2019-03-06T17:57:52.622Z,98984.00
2019-03-06T18:00:25.731Z,98987.00
2019-03-06T18:02:54.171Z,98985.00
2019-03-06T18:05:22.766Z,98983.00
2019-03-06T18:07:51.315Z,98983.00
2019-03-06T18:10:19.696Z,98987.00
2019-03-06T18:12:47.858Z,98976.00
2019-03-06T18:15:16.163Z,98973.00
2019-03-06T18:17:44.649Z,98979.00
2019-03-06T18:20:13.790Z,98973.00
2019-03-06T18:22:43.035Z,98965.00
2019-03-06T18:25:14.019Z,98956.00
2019-03-06T18:27:42.219Z,98951.00
2019-03-06T18:30:13.565Z,98950.00
2019-03-06T18:32:42.117Z,98949.00
2019-03-06T18:35:11.958Z,98941.00
2019-03-06T18:37:40.106Z,98942.00
2019-03-06T18:40:11.246Z,98933.00
2019-03-06T18:42:39.845Z,98927.00
2019-03-06T18:45:11.367Z,98907.00
2019-03-06T18:47:39.998Z,98905.00
2019-03-06T18:50:10.681Z,98888.00
2019-03-06T18:52:38.891Z,98881.00
2019-03-06T18:55:08.345Z,98882.00
2019-03-06T18:57:36.988Z,98873.00
2019-03-06T19:00:08.575Z,98873.00
2019-03-06T19:02:37.401Z,98872.00
2019-03-06T19:05:06.323Z,98855.00
2019-03-06T19:07:35.873Z,98864.00
2019-03-06T19:10:05.800Z,98859.00
2019-03-06T19:12:34.461Z,98860.00
2019-03-06T19:15:03.678Z,98858.00
2019-03-06T19:17:33.928Z,98845.00
2019-03-06T19:20:06.818Z,98832.00
2019-03-06T19:22:35.811Z,98842.00
2019-03-06T19:25:04.778Z,98839.00
2019-03-06T19:27:33.687Z,98829.00
2019-03-06T19:30:02.223Z,98822.00
2019-03-06T19:32:30.831Z,98818.00
2019-03-06T19:34:59.819Z,98807.00
2019-03-06T19:37:28.328Z,98806.00
2019-03-06T19:39:56.800Z,98807.00
2019-03-06T19:42:25.195Z,98806.00
2019-03-06T19:44:53.658Z,98803.00
2019-03-06T19:47:22.307Z,98798.00
2019-03-06T19:49:50.596Z,98792.00
2019-03-06T19:52:21.402Z,98800.00
2019-03-06T19:54:51.347Z,98787.00
2019-03-06T19:57:19.651Z,98791.00
2019-03-06T19:59:49.305Z,98787.00
2019-03-06T20:02:17.823Z,98798.00
2019-03-06T20:04:46.090Z,98797.00
2019-03-06T20:07:14.327Z,98795.00
2019-03-06T20:09:42.740Z,98792.00
2019-03-06T20:12:11.369Z,98784.00
2019-03-06T20:14:39.760Z,98792.00
2019-03-06T20:17:08.168Z,98782.00
2019-03-06T20:19:36.605Z,98776.00
2019-03-06T20:22:05.333Z,98783.00
2019-03-06T20:24:33.709Z,98770.00
2019-03-06T20:27:01.991Z,98778.00
2019-03-06T20:29:30.194Z,98770.00
2019-03-06T20:32:00.337Z,98769.00
2019-03-06T20:34:29.660Z,98764.00
2019-03-06T20:36:57.867Z,98758.00
2019-03-06T20:39:26.929Z,98757.00
2019-03-06T20:41:55.195Z,98764.00
2019-03-06T20:44:23.364Z,98763.00
2019-03-06T20:46:51.452Z,98763.00
2019-03-06T20:49:19.637Z,98761.00
2019-03-06T20:51:48.115Z,98751.00
2019-03-06T20:54:16.237Z,98735.00
2019-03-06T20:56:44.357Z,98736.00
2019-03-06T20:59:13.811Z,98728.00
2019-03-06T21:01:42.030Z,98731.00
2019-03-06T21:04:11.278Z,98729.00
2019-03-06T21:06:39.655Z,98722.00
2019-03-06T21:09:08.434Z,98715.00
2019-03-06T21:11:37.942Z,98716.00
2019-03-06T21:14:06.372Z,98723.00
2019-03-06T21:16:34.491Z,98724.00
2019-03-06T21:19:03.914Z,98714.00
2019-03-06T21:21:32.257Z,98710.00
2019-03-06T21:24:00.771Z,98711.00
2019-03-06T21:26:28.991Z,98702.00
2019-03-06T21:28:57.447Z,98703.00
2019-03-06T21:31:25.903Z,98696.00
2019-03-06T21:33:54.012Z,98693.00
2019-03-06T21:36:22.142Z,98687.00
2019-03-06T21:38:50.195Z,98682.00
2019-03-06T21:41:18.287Z,98674.00
2019-03-06T21:43:46.543Z,98675.00
2019-03-06T21:46:15.320Z,98670.00
2019-03-06T21:48:43.435Z,98659.00
2019-03-06T21:51:11.682Z,98659.00
2019-03-06T21:53:39.781Z,98662.00
2019-03-06T21:56:07.899Z,98661.00
2019-03-06T21:58:35.977Z,98659.00
2019-03-06T22:01:05.032Z,98663.00
2019-03-06T22:03:33.280Z,98670.00
2019-03-06T22:06:01.398Z,98668.00
2019-03-06T22:08:29.519Z,98665.00
2019-03-06T22:10:58.587Z,98660.00
2019-03-06T22:13:26.615Z,98658.00
2019-03-06T22:15:54.791Z,98666.00
2019-03-06T22:18:23.087Z,98660.00
2019-03-06T22:20:51.210Z,98673.00
2019-03-06T22:23:19.388Z,98678.00
2019-03-06T22:25:47.512Z,98679.00
2019-03-06T22:28:15.802Z,98680.00
2019-03-06T22:30:43.858Z,98682.00
2019-03-06T22:33:11.867Z,98678.00
2019-03-06T22:35:40.179Z,98669.00
2019-03-06T22:38:08.172Z,98662.00
2019-03-06T22:40:36.188Z,98661.00
2019-03-06T22:43:04.546Z,98661.00
2019-03-06T22:45:33.338Z,98666.00
2019-03-06T22:48:01.376Z,98655.00
2019-03-06T22:50:29.565Z,98658.00
2019-03-06T22:52:57.700Z,98650.00
2019-03-06T22:55:25.607Z,98647.00
2019-03-06T22:57:53.577Z,98634.00
2019-03-06T23:00:43.431Z,98634.00
2019-03-06T23:03:14.124Z,98641.00
2019-03-06T23:05:42.331Z,98631.00
2019-03-06T23:08:10.851Z,98628.00
2019-03-06T23:10:38.802Z,98633.00
2019-03-06T23:13:06.765Z,98631.00
2019-03-06T23:15:34.766Z,98635.00
2019-03-06T23:18:02.794Z,98653.00
2019-03-06T23:20:30.784Z,98638.00
2019-03-06T23:22:58.809Z,98635.00
2019-03-06T23:25:26.708Z,98633.00
2019-03-06T23:27:54.676Z,98625.00
2019-03-06T23:30:22.667Z,98627.00
2019-03-06T23:32:50.829Z,98615.00
2019-03-06T23:35:19.029Z,98612.00
2019-03-06T23:37:47.362Z,98614.00
2019-03-06T23:40:15.305Z,98630.00
2019-03-06T23:42:44.028Z,98620.00
2019-03-06T23:45:12.066Z,98615.00
2019-03-06T23:47:40.271Z,98620.00
2019-03-06T23:50:08.459Z,98602.00
2019-03-06T23:52:57.206Z,98596.00
2019-03-06T23:55:27.167Z,98595.00
2019-03-06T23:57:55.345Z,98595.00
